Time;durP1;ratioP1;P1;durP2;ratioP2;P2;SDS_P1;SDS_P2;PMS_P1;PMS_P2;Temp;Humidity;BMP_temperature;BMP_pressure;BME280_temperature;BME280_humidity;BME280_pressure;Samples;Min_cycle;Max_cycle;Signal;HPM_P1;HPM_P2
2023/04/07 00:00:39;;;;;;;4.57;4.28;;;;;;;;;;5036877;28;20054;-93
2023/04/07 00:03:06;;;;;;;6.45;6.05;;;;;;;;;;5036893;28;20049;-92
2023/04/07 00:05:33;;;;;;;3.35;3.15;;;;;;;;;;5036550;28;20053;-93
2023/04/07 00:07:59;;;;;;;3.75;3.55;;;;;;;;;;5036823;28;20517;-93
2023/04/07 00:10:26;;;;;;;2.97;2.85;;;;;;;;;;5037173;28;20049;-93
2023/04/07 00:12:52;;;;;;;3.08;2.88;;;;;;;;;;5036755;28;20054;-91
2023/04/07 00:15:19;;;;;;;4.80;4.50;;;;;;;;;;5036566;28;20049;-92
2023/04/07 00:17:48;;;;;;;3.50;3.28;;;;;;;;;;5036664;28;20049;-92
2023/04/07 00:20:14;;;;;;;5.72;5.35;;;;;;;;;;5037292;28;20049;-92
2023/04/07 00:22:41;;;;;;;4.63;4.20;;;;;;;;;;5036108;28;20057;-92
2023/04/07 00:25:08;;;;;;;3.83;3.63;;;;;;;;;;5036718;28;20478;-92
2023/04/07 00:27:34;;;;;;;3.00;2.80;;;;;;;;;;5036492;28;20057;-91
2023/04/07 00:30:01;;;;;;;4.22;4.03;;;;;;;;;;5036511;28;20046;-92
2023/04/07 00:32:28;;;;;;;5.95;5.72;;;;;;;;;;5036795;28;20555;-93
2023/04/07 00:34:56;;;;;;;3.50;3.30;;;;;;;;;;5037222;28;20092;-92
2023/04/07 00:37:22;;;;;;;2.75;2.65;;;;;;;;;;5036409;28;20053;-92
2023/04/07 00:39:50;;;;;;;3.75;3.63;;;;;;;;;;5035987;28;20045;-91
2023/04/07 00:42:16;;;;;;;2.15;2.05;;;;;;;;;;5036663;28;20090;-91
2023/04/07 00:44:43;;;;;;;3.42;3.17;;;;;;;;;;5036373;28;20056;-92
2023/04/07 00:47:10;;;;;;;3.40;3.28;;;;;;;;;;5036571;28;20454;-93
2023/04/07 00:49:36;;;;;;;2.88;2.75;;;;;;;;;;5036407;28;20046;-92
2023/04/07 00:52:05;;;;;;;4.10;3.80;;;;;;;;;;5036341;28;20099;-93
2023/04/07 00:54:32;;;;;;;2.33;2.22;;;;;;;;;;5036140;28;20065;-92
2023/04/07 00:56:58;;;;;;;3.22;2.92;;;;;;;;;;5036508;28;20172;-94
2023/04/07 00:59:25;;;;;;;4.15;3.92;;;;;;;;;;5036773;28;20057;-94
2023/04/07 01:01:55;;;;;;;2.33;2.22;;;;;;;;;;5036746;28;20049;-94
2023/04/07 01:04:26;;;;;;;1.80;1.70;;;;;;;;;;5036534;28;20092;-93
2023/04/07 01:06:55;;;;;;;4.00;3.72;;;;;;;;;;5036608;28;20055;-95
2023/04/07 01:09:25;;;;;;;1.55;1.52;;;;;;;;;;5036784;28;20046;-93
2023/04/07 01:11:56;;;;;;;3.92;3.75;;;;;;;;;;5036436;28;20068;-93
2023/04/07 01:14:23;;;;;;;3.17;3.05;;;;;;;;;;5036440;28;20045;-94
2023/04/07 01:16:51;;;;;;;3.78;3.58;;;;;;;;;;5035867;28;20551;-92
2023/04/07 01:19:30;;;;;;;3.35;3.25;;;;;;;;;;5035729;28;20072;-92
2023/04/07 01:21:58;;;;;;;2.03;1.92;;;;;;;;;;5035769;28;20068;-93
2023/04/07 01:24:39;;;;;;;2.95;2.85;;;;;;;;;;5035570;28;20124;-93
2023/04/07 01:27:14;;;;;;;3.15;3.05;;;;;;;;;;5034613;28;20053;-93
2023/04/07 01:29:46;;;;;;;2.75;2.65;;;;;;;;;;5015670;28;20157;-92
2023/04/07 01:32:13;;;;;;;3.10;3.00;;;;;;;;;;5015543;28;20053;-91
2023/04/07 01:34:40;;;;;;;2.92;2.72;;;;;;;;;;5015684;28;20050;-91
2023/04/07 01:37:07;;;;;;;3.05;2.85;;;;;;;;;;5015503;28;20116;-92
2023/04/07 01:39:34;;;;;;;5.00;4.80;;;;;;;;;;5015574;28;20052;-91
2023/04/07 01:42:01;;;;;;;2.97;2.78;;;;;;;;;;5015476;28;20053;-92
2023/04/07 01:44:28;;;;;;;3.45;2.90;;;;;;;;;;5016604;28;20045;-92
2023/04/07 01:46:57;;;;;;;1.83;1.73;;;;;;;;;;5035105;28;20049;-92
2023/04/07 01:49:24;;;;;;;2.70;2.60;;;;;;;;;;5034659;28;20053;-92
2023/04/07 01:51:51;;;;;;;5.18;3.25;;;;;;;;;;5035109;28;20095;-91
2023/04/07 01:54:18;;;;;;;3.33;3.13;;;;;;;;;;5034985;28;20119;-91
2023/04/07 01:56:45;;;;;;;6.88;6.35;;;;;;;;;;5034796;28;20444;-92
2023/04/07 01:59:11;;;;;;;2.30;2.20;;;;;;;;;;5034944;28;20132;-92
2023/04/07 02:01:38;;;;;;;2.83;2.65;;;;;;;;;;5034335;28;20053;-92
2023/04/07 02:04:10;;;;;;;3.50;3.30;;;;;;;;;;5034629;28;20506;-92
2023/04/07 02:06:41;;;;;;;3.10;3.00;;;;;;;;;;5034709;28;20058;-91
2023/04/07 02:09:10;;;;;;;1.77;1.67;;;;;;;;;;5034814;28;20091;-91
2023/04/07 02:11:37;;;;;;;3.63;3.42;;;;;;;;;;5034717;28;20057;-91
2023/04/07 02:14:06;;;;;;;2.33;2.13;;;;;;;;;;5034543;28;20057;-92
2023/04/07 02:16:32;;;;;;;3.25;3.05;;;;;;;;;;5034383;28;20129;-91
2023/04/07 02:19:01;;;;;;;4.13;3.92;;;;;;;;;;5034701;28;20100;-91
2023/04/07 02:21:30;;;;;;;2.35;2.25;;;;;;;;;;5034475;28;20386;-91
2023/04/07 02:23:57;;;;;;;1.88;1.77;;;;;;;;;;5034371;28;20053;-90
2023/04/07 02:26:23;;;;;;;2.75;2.63;;;;;;;;;;5033980;28;20050;-92
2023/04/07 02:28:49;;;;;;;3.33;3.20;;;;;;;;;;5034386;28;20441;-92
2023/04/07 02:31:16;;;;;;;4.60;4.30;;;;;;;;;;5034008;28;20567;-92
2023/04/07 02:33:43;;;;;;;3.67;3.47;;;;;;;;;;5033760;28;20046;-89
2023/04/07 02:36:09;;;;;;;4.43;4.10;;;;;;;;;;5033998;28;20049;-90
2023/04/07 02:38:37;;;;;;;2.45;2.35;;;;;;;;;;5033942;28;20049;-90
2023/04/07 02:41:03;;;;;;;2.72;2.63;;;;;;;;;;5034091;28;20045;-90
2023/04/07 02:43:30;;;;;;;3.97;3.78;;;;;;;;;;5034508;28;20126;-91
2023/04/07 02:45:56;;;;;;;1.77;1.67;;;;;;;;;;5034094;28;20053;-90
2023/04/07 02:48:23;;;;;;;2.15;2.05;;;;;;;;;;5034134;28;20500;-91
2023/04/07 02:50:49;;;;;;;2.80;2.70;;;;;;;;;;5033480;28;20054;-91
2023/04/07 02:53:16;;;;;;;5.22;4.78;;;;;;;;;;5034492;28;20100;-93
2023/04/07 02:55:44;;;;;;;2.83;2.72;;;;;;;;;;5034228;28;20493;-92
2023/04/07 02:58:11;;;;;;;3.13;3.03;;;;;;;;;;5034291;28;20053;-91
2023/04/07 03:00:37;;;;;;;3.35;3.15;;;;;;;;;;5037958;28;20556;-91
2023/04/07 03:03:04;;;;;;;2.97;2.85;;;;;;;;;;5038586;28;20104;-92
2023/04/07 03:05:30;;;;;;;2.83;2.63;;;;;;;;;;5038217;28;20056;-91
2023/04/07 03:07:57;;;;;;;3.50;3.38;;;;;;;;;;5037632;28;20103;-89
2023/04/07 03:10:23;;;;;;;2.38;2.28;;;;;;;;;;5037882;28;20057;-90
2023/04/07 03:12:51;;;;;;;3.72;3.13;;;;;;;;;;5038331;28;20053;-92
2023/04/07 03:15:18;;;;;;;2.50;2.40;;;;;;;;;;5038274;28;20045;-92
2023/04/07 03:17:44;;;;;;;4.07;3.47;;;;;;;;;;5038479;28;20057;-92
2023/04/07 03:20:11;;;;;;;1.90;1.80;;;;;;;;;;5037962;28;20045;-92
2023/04/07 03:22:38;;;;;;;10.63;3.35;;;;;;;;;;5037576;28;20096;-93
2023/04/07 03:25:05;;;;;;;2.55;2.45;;;;;;;;;;5037239;28;20053;-91
2023/04/07 03:27:31;;;;;;;3.08;2.97;;;;;;;;;;5037590;28;20057;-90
2023/04/07 03:29:59;;;;;;;2.92;2.72;;;;;;;;;;5037439;28;20046;-91
2023/04/07 03:32:26;;;;;;;3.08;2.95;;;;;;;;;;5037585;28;20449;-91
2023/04/07 03:34:52;;;;;;;2.63;2.53;;;;;;;;;;5037713;28;20042;-92
2023/04/07 03:37:19;;;;;;;1.90;1.80;;;;;;;;;;5038662;28;20053;-93
2023/04/07 03:39:45;;;;;;;2.65;2.55;;;;;;;;;;5037430;28;20111;-91
2023/04/07 03:42:12;;;;;;;3.10;3.00;;;;;;;;;;5037007;28;20053;-93
2023/04/07 03:44:39;;;;;;;4.07;3.78;;;;;;;;;;5037581;28;20107;-92
2023/04/07 03:47:07;;;;;;;5.35;4.85;;;;;;;;;;5037095;28;20065;-91
2023/04/07 03:49:33;;;;;;;3.05;2.95;;;;;;;;;;5037367;28;20057;-91
2023/04/07 03:52:00;;;;;;;3.53;3.33;;;;;;;;;;5037303;28;20076;-90
2023/04/07 03:54:26;;;;;;;3.58;3.38;;;;;;;;;;5037517;28;20049;-91
2023/04/07 03:56:53;;;;;;;3.50;3.25;;;;;;;;;;5036857;28;20100;-91
2023/04/07 03:59:19;;;;;;;4.03;3.83;;;;;;;;;;5020714;28;20184;-90
2023/04/07 04:01:46;;;;;;;3.47;3.35;;;;;;;;;;5017404;28;20049;-90
2023/04/07 04:04:14;;;;;;;3.25;3.13;;;;;;;;;;5017148;28;20104;-91
2023/04/07 04:06:40;;;;;;;2.22;1.95;;;;;;;;;;5017008;28;20476;-91
2023/04/07 04:09:07;;;;;;;4.82;4.43;;;;;;;;;;5017295;28;20128;-92
2023/04/07 04:11:33;;;;;;;3.92;3.72;;;;;;;;;;5016546;28;20045;-91
2023/04/07 04:14:00;;;;;;;4.50;4.25;;;;;;;;;;5017048;28;20107;-91
2023/04/07 04:16:26;;;;;;;5.07;4.85;;;;;;;;;;5017138;28;20057;-91
2023/04/07 04:18:53;;;;;;;4.30;4.10;;;;;;;;;;5017038;28;20386;-91
2023/04/07 04:21:21;;;;;;;4.55;3.65;;;;;;;;;;5017345;28;20053;-92
2023/04/07 04:23:47;;;;;;;3.65;3.45;;;;;;;;;;5016450;28;20046;-91
2023/04/07 04:26:14;;;;;;;2.55;2.35;;;;;;;;;;5016457;28;20461;-91
2023/04/07 04:28:41;;;;;;;2.90;2.70;;;;;;;;;;5016984;28;20133;-92
2023/04/07 04:31:07;;;;;;;2.85;2.72;;;;;;;;;;5023097;28;20050;-91
2023/04/07 04:33:34;;;;;;;3.30;3.10;;;;;;;;;;5036278;28;20099;-92
2023/04/07 04:36:00;;;;;;;4.90;4.47;;;;;;;;;;5036833;28;20095;-92
2023/04/07 04:38:28;;;;;;;5.40;5.20;;;;;;;;;;5036384;28;20489;-91
2023/04/07 04:40:55;;;;;;;2.15;2.05;;;;;;;;;;5035829;28;20049;-92
2023/04/07 04:43:21;;;;;;;3.53;3.30;;;;;;;;;;5036085;28;20050;-92
2023/04/07 04:45:48;;;;;;;4.97;3.10;;;;;;;;;;5036164;28;20111;-92
2023/04/07 04:48:15;;;;;;;4.63;4.43;;;;;;;;;;5025992;28;20046;-93
2023/04/07 04:50:42;;;;;;;4.40;4.18;;;;;;;;;;5016630;28;20482;-91
2023/04/07 04:53:09;;;;;;;4.05;3.75;;;;;;;;;;5016240;28;20049;-92
2023/04/07 04:55:39;;;;;;;3.78;3.55;;;;;;;;;;5020907;28;20037;-94
2023/04/07 04:58:06;;;;;;;4.68;4.47;;;;;;;;;;5056139;28;20530;-93
2023/04/07 05:00:32;;;;;;;3.38;3.22;;;;;;;;;;5053436;28;20060;-93
2023/04/07 05:02:59;;;;;;;4.78;4.45;;;;;;;;;;5032677;28;20082;-91
2023/04/07 05:05:25;;;;;;;2.88;2.78;;;;;;;;;;5017092;28;20046;-92
2023/04/07 05:07:52;;;;;;;4.63;4.25;;;;;;;;;;5016069;28;20096;-92
2023/04/07 05:10:18;;;;;;;7.03;6.18;;;;;;;;;;5016061;28;20104;-92
2023/04/07 05:12:46;;;;;;;4.22;3.97;;;;;;;;;;5015814;28;20058;-92
2023/04/07 05:15:14;;;;;;;6.60;6.30;;;;;;;;;;5015683;28;20053;-91
2023/04/07 05:17:40;;;;;;;9.82;6.50;;;;;;;;;;5015777;28;20065;-92
2023/04/07 05:20:09;;;;;;;5.70;5.40;;;;;;;;;;5016409;28;20049;-92
2023/04/07 05:22:36;;;;;;;5.43;4.93;;;;;;;;;;5014637;28;20045;-92
2023/04/07 05:25:02;;;;;;;6.32;5.85;;;;;;;;;;5015670;28;20061;-92
2023/04/07 05:27:29;;;;;;;5.32;4.82;;;;;;;;;;5015610;28;20517;-93
2023/04/07 05:29:57;;;;;;;4.93;4.63;;;;;;;;;;5015647;28;20049;-92
2023/04/07 05:32:24;;;;;;;5.25;4.82;;;;;;;;;;5015705;28;20387;-93
2023/04/07 05:34:51;;;;;;;7.55;7.10;;;;;;;;;;5015835;28;20058;-93
2023/04/07 05:37:17;;;;;;;5.72;5.32;;;;;;;;;;5032079;28;20045;-93
2023/04/07 05:39:44;;;;;;;4.28;4.07;;;;;;;;;;5032138;28;20051;-93
2023/04/07 05:42:10;;;;;;;4.68;4.38;;;;;;;;;;5032690;28;20041;-94
2023/04/07 05:44:37;;;;;;;3.65;3.50;;;;;;;;;;5035751;28;20108;-94
2023/04/07 05:47:07;;;;;;;4.53;4.18;;;;;;;;;;5036052;28;20115;-94
2023/04/07 05:49:34;;;;;;;4.60;4.30;;;;;;;;;;5018316;28;20053;-91
2023/04/07 05:52:02;;;;;;;4.88;4.57;;;;;;;;;;5035649;28;20072;-92
2023/04/07 05:54:28;;;;;;;5.88;5.57;;;;;;;;;;5035542;28;20053;-91
2023/04/07 05:56:56;;;;;;;5.93;5.60;;;;;;;;;;5040499;28;20049;-94
2023/04/07 05:59:23;;;;;;;8.75;7.43;;;;;;;;;;5019614;28;20046;-94
2023/04/07 06:01:50;;;;;;;4.55;4.25;;;;;;;;;;5015364;28;20477;-93
2023/04/07 06:04:17;;;;;;;6.30;5.75;;;;;;;;;;5026360;28;20042;-94
2023/04/07 06:06:44;;;;;;;4.15;3.80;;;;;;;;;;5015406;28;20482;-94
2023/04/07 06:09:11;;;;;;;7.05;4.57;;;;;;;;;;5015514;28;20140;-93
2023/04/07 06:11:38;;;;;;;5.70;5.03;;;;;;;;;;5021851;28;20107;-93
2023/04/07 06:14:04;;;;;;;4.28;4.03;;;;;;;;;;5035503;28;20130;-93
2023/04/07 06:16:31;;;;;;;4.22;3.92;;;;;;;;;;5035199;28;20045;-93
2023/04/07 06:18:57;;;;;;;5.80;3.58;;;;;;;;;;5035620;28;20060;-95
2023/04/07 06:21:26;;;;;;;4.65;4.45;;;;;;;;;;5019549;28;20104;-94
2023/04/07 06:23:52;;;;;;;6.38;5.95;;;;;;;;;;5016843;28;20042;-95
2023/04/07 06:26:20;;;;;;;6.72;6.18;;;;;;;;;;5015821;28;20061;-94
2023/04/07 06:28:47;;;;;;;8.77;7.95;;;;;;;;;;5016083;28;20132;-96
2023/04/07 06:31:13;;;;;;;6.82;6.32;;;;;;;;;;5034743;28;20076;-93
2023/04/07 06:33:40;;;;;;;5.90;4.78;;;;;;;;;;5041566;28;20060;-93
2023/04/07 06:36:06;;;;;;;5.05;4.75;;;;;;;;;;5037653;28;20402;-93
2023/04/07 06:38:34;;;;;;;5.50;5.07;;;;;;;;;;5036313;28;20050;-94
2023/04/07 06:41:01;;;;;;;4.43;4.22;;;;;;;;;;5027117;28;20069;-94
2023/04/07 06:43:28;;;;;;;5.80;5.40;;;;;;;;;;5017713;28;20115;-93
2023/04/07 06:45:54;;;;;;;5.47;5.22;;;;;;;;;;5018581;28;20050;-91
2023/04/07 06:48:21;;;;;;;7.50;6.90;;;;;;;;;;5019097;28;20060;-92
2023/04/07 06:50:49;;;;;;;5.63;5.32;;;;;;;;;;5017427;28;20686;-93
2023/04/07 06:53:15;;;;;;;6.47;6.18;;;;;;;;;;5016569;28;20057;-92
2023/04/07 06:55:43;;;;;;;7.70;7.13;;;;;;;;;;5024116;28;20121;-93
2023/04/07 06:58:10;;;;;;;5.45;5.15;;;;;;;;;;5039308;28;20049;-94
2023/04/07 07:00:37;;;;;;;10.02;9.63;;;;;;;;;;5038366;28;20391;-93
2023/04/07 07:03:03;;;;;;;13.45;12.90;;;;;;;;;;5039737;28;20053;-93
2023/04/07 07:05:30;;;;;;;7.07;6.68;;;;;;;;;;5038358;28;20060;-93
2023/04/07 07:07:56;;;;;;;6.60;6.20;;;;;;;;;;5031904;28;20050;-93
2023/04/07 07:10:23;;;;;;;7.75;7.20;;;;;;;;;;5036745;28;20103;-93
2023/04/07 07:12:51;;;;;;;7.43;7.03;;;;;;;;;;5035963;28;20057;-94
2023/04/07 07:15:18;;;;;;;7.07;6.65;;;;;;;;;;5035935;28;20080;-93
2023/04/07 07:17:44;;;;;;;10.73;6.30;;;;;;;;;;5032841;28;20054;-94
2023/04/07 07:20:11;;;;;;;18.95;18.13;;;;;;;;;;5035574;28;20050;-93
2023/04/07 07:22:38;;;;;;;5.75;4.40;;;;;;;;;;5036398;28;20049;-94
2023/04/07 07:25:05;;;;;;;6.05;5.68;;;;;;;;;;5036965;28;20053;-93
2023/04/07 07:27:31;;;;;;;8.98;8.43;;;;;;;;;;5036185;28;20065;-93
2023/04/07 07:30:00;;;;;;;7.93;7.43;;;;;;;;;;5034603;28;20053;-92
2023/04/07 07:32:26;;;;;;;8.68;8.18;;;;;;;;;;5034666;28;20062;-93
2023/04/07 07:34:53;;;;;;;8.15;7.70;;;;;;;;;;5034413;28;20096;-94
2023/04/07 07:37:19;;;;;;;11.15;10.48;;;;;;;;;;5033895;28;20053;-93
2023/04/07 07:39:46;;;;;;;8.90;7.15;;;;;;;;;;5035541;28;20099;-93
2023/04/07 07:42:12;;;;;;;11.18;10.57;;;;;;;;;;5035530;28;20103;-94
2023/04/07 07:44:39;;;;;;;21.23;20.40;;;;;;;;;;5035560;28;20116;-93
2023/04/07 07:47:07;;;;;;;9.50;9.10;;;;;;;;;;5037531;28;20154;-92
2023/04/07 07:49:33;;;;;;;12.30;11.80;;;;;;;;;;5039479;28;20049;-92
2023/04/07 07:52:00;;;;;;;8.77;8.27;;;;;;;;;;5039149;28;20145;-94
2023/04/07 07:54:26;;;;;;;9.45;9.05;;;;;;;;;;5038734;28;20213;-92
2023/04/07 07:56:53;;;;;;;8.23;7.57;;;;;;;;;;5025564;28;20050;-92
2023/04/07 07:59:20;;;;;;;8.40;7.50;;;;;;;;;;5018654;28;20530;-93
2023/04/07 08:01:46;;;;;;;14.70;14.10;;;;;;;;;;5034874;28;20410;-92
2023/04/07 08:04:14;;;;;;;8.95;8.55;;;;;;;;;;5038558;28;20053;-90
2023/04/07 08:06:41;;;;;;;10.77;10.20;;;;;;;;;;5028306;28;20049;-90
2023/04/07 08:09:08;;;;;;;10.40;9.85;;;;;;;;;;5055305;28;20133;-90
2023/04/07 08:11:34;;;;;;;9.75;9.35;;;;;;;;;;5024504;28;20045;-91
2023/04/07 08:14:01;;;;;;;8.93;8.38;;;;;;;;;;5021331;28;20045;-91
2023/04/07 08:16:27;;;;;;;9.20;8.80;;;;;;;;;;5038874;28;20053;-91
2023/04/07 08:18:54;;;;;;;8.68;7.95;;;;;;;;;;5037862;28;20049;-92
2023/04/07 08:21:22;;;;;;;10.48;9.90;;;;;;;;;;5031495;28;20050;-91
2023/04/07 08:23:48;;;;;;;8.05;7.70;;;;;;;;;;5017482;28;20049;-93
2023/04/07 08:26:16;;;;;;;7.88;7.57;;;;;;;;;;5017148;28;20540;-91
2023/04/07 08:28:43;;;;;;;11.57;10.43;;;;;;;;;;5020231;28;20046;-92
2023/04/07 08:31:09;;;;;;;8.65;8.18;;;;;;;;;;5021021;28;20049;-92
2023/04/07 08:33:35;;;;;;;7.82;7.43;;;;;;;;;;5029591;28;20037;-92
2023/04/07 08:36:02;;;;;;;11.40;10.75;;;;;;;;;;5033031;28;20099;-92
2023/04/07 08:38:31;;;;;;;27.45;26.40;;;;;;;;;;5017582;28;20054;-91
2023/04/07 08:41:00;;;;;;;8.90;8.50;;;;;;;;;;5017529;28;20042;-91
2023/04/07 08:43:28;;;;;;;8.85;8.40;;;;;;;;;;5018950;28;20053;-91
2023/04/07 08:45:56;;;;;;;19.52;18.73;;;;;;;;;;5021931;28;20563;-91
2023/04/07 08:48:25;;;;;;;19.50;18.67;;;;;;;;;;5032852;28;20045;-91
2023/04/07 08:50:52;;;;;;;7.25;6.85;;;;;;;;;;5017339;28;20080;-92
2023/04/07 08:53:20;;;;;;;11.38;10.65;;;;;;;;;;5016994;28;20108;-92
2023/04/07 08:55:48;;;;;;;11.57;10.60;;;;;;;;;;5017714;28;20050;-92
2023/04/07 08:58:15;;;;;;;17.67;16.65;;;;;;;;;;5017441;28;20457;-92
2023/04/07 09:00:44;;;;;;;9.65;9.15;;;;;;;;;;5040024;28;20053;-92
2023/04/07 09:03:11;;;;;;;10.20;9.80;;;;;;;;;;5025771;28;20049;-92
2023/04/07 09:05:38;;;;;;;24.65;23.67;;;;;;;;;;5016438;28;20120;-92
2023/04/07 09:08:05;;;;;;;8.32;7.93;;;;;;;;;;5032720;28;20050;-91
2023/04/07 09:10:32;;;;;;;11.02;10.52;;;;;;;;;;5037093;28;20073;-91
2023/04/07 09:13:00;;;;;;;11.68;11.10;;;;;;;;;;5035677;28;20049;-91
2023/04/07 09:15:29;;;;;;;11.50;11.07;;;;;;;;;;5035736;28;20054;-90
2023/04/07 09:17:56;;;;;;;12.02;11.43;;;;;;;;;;5017996;28;20112;-92
2023/04/07 09:20:24;;;;;;;10.65;10.23;;;;;;;;;;5016850;28;20072;-92
2023/04/07 09:22:50;;;;;;;14.95;14.30;;;;;;;;;;5016173;28;20490;-93
2023/04/07 09:25:18;;;;;;;13.38;12.88;;;;;;;;;;5015953;28;20054;-92
2023/04/07 09:27:57;;;;;;;22.90;22.02;;;;;;;;;;5016712;28;20099;-91
2023/04/07 09:30:26;;;;;;;25.98;24.98;;;;;;;;;;5016762;28;20089;-90
2023/04/07 09:32:52;;;;;;;27.50;26.50;;;;;;;;;;5015900;28;20046;-91
2023/04/07 09:35:21;;;;;;;24.30;23.33;;;;;;;;;;5015456;28;20485;-90
2023/04/07 09:38:00;;;;;;;22.48;21.50;;;;;;;;;;5016289;28;20054;-91
2023/04/07 09:40:27;;;;;;;27.10;26.00;;;;;;;;;;5017887;28;20061;-91
2023/04/07 09:42:54;;;;;;;8.05;7.65;;;;;;;;;;5016580;28;20049;-91
2023/04/07 09:45:26;;;;;;;27.05;25.90;;;;;;;;;;5014910;28;20054;-92
2023/04/07 09:47:53;;;;;;;16.77;15.98;;;;;;;;;;5015289;28;20422;-92
2023/04/07 09:50:31;;;;;;;13.50;13.00;;;;;;;;;;5015349;28;20045;-92
2023/04/07 09:52:57;;;;;;;28.15;26.85;;;;;;;;;;5015303;28;20482;-92
2023/04/07 09:55:24;;;;;;;26.70;25.70;;;;;;;;;;5015780;28;20104;-91
2023/04/07 09:57:51;;;;;;;14.57;13.98;;;;;;;;;;5015156;28;20133;-91
2023/04/07 10:00:17;;;;;;;28.92;27.83;;;;;;;;;;5015227;28;20054;-91
2023/04/07 10:02:46;;;;;;;29.15;28.13;;;;;;;;;;5029970;28;20546;-90
2023/04/07 10:05:13;;;;;;;28.10;27.05;;;;;;;;;;5040760;28;20049;-91
2023/04/07 10:07:40;;;;;;;12.60;12.00;;;;;;;;;;5034817;28;20053;-91
2023/04/07 10:10:07;;;;;;;16.83;16.13;;;;;;;;;;5035673;28;20045;-91
2023/04/07 10:12:34;;;;;;;12.80;12.30;;;;;;;;;;5037125;28;20497;-91
2023/04/07 10:15:01;;;;;;;25.23;24.23;;;;;;;;;;5034877;28;20057;-91
2023/04/07 10:17:28;;;;;;;15.60;15.00;;;;;;;;;;5034128;28;20136;-92
2023/04/07 10:19:58;;;;;;;14.10;13.50;;;;;;;;;;5033955;28;20555;-90
2023/04/07 10:22:25;;;;;;;28.17;27.13;;;;;;;;;;5034178;28;20099;-90
2023/04/07 10:24:54;;;;;;;11.20;10.75;;;;;;;;;;5033798;28;20054;-90
2023/04/07 10:27:22;;;;;;;26.52;25.52;;;;;;;;;;5036562;28;20063;-92
2023/04/07 10:29:50;;;;;;;27.95;26.95;;;;;;;;;;5034333;28;20053;-92
2023/04/07 10:32:16;;;;;;;14.35;13.77;;;;;;;;;;5035013;28;20079;-91
2023/04/07 10:34:58;;;;;;;25.83;24.83;;;;;;;;;;5038092;28;20053;-91
2023/04/07 10:37:26;;;;;;;14.38;13.77;;;;;;;;;;5031781;28;20071;-90
2023/04/07 10:40:08;;;;;;;31.77;30.65;;;;;;;;;;5035101;28;20084;-90
2023/04/07 10:42:47;;;;;;;12.00;11.50;;;;;;;;;;5022885;28;20045;-91
2023/04/07 10:45:14;;;;;;;20.75;20.00;;;;;;;;;;5016517;28;20449;-89
2023/04/07 10:47:55;;;;;;;25.88;24.88;;;;;;;;;;5019144;28;20110;-90
2023/04/07 10:50:23;;;;;;;16.42;15.68;;;;;;;;;;5016302;28;20866;-91
2023/04/07 10:53:06;;;;;;;16.45;15.75;;;;;;;;;;5016460;28;20073;-89
2023/04/07 10:55:32;;;;;;;;;;;;;;;;;;5017140;28;20054;-91
2023/04/07 10:58:17;;;;;;;16.38;15.70;;;;;;;;;;5027572;28;20315;-90
2023/04/07 11:01:10;;;;;;;22.05;21.15;;;;;;;;;;5035584;28;20049;-90
2023/04/07 11:03:37;;;;;;;15.23;14.55;;;;;;;;;;5034721;28;20042;-91
2023/04/07 11:06:04;;;;;;;14.40;13.80;;;;;;;;;;5034454;28;20092;-91
2023/04/07 11:08:36;;;;;;;27.13;26.02;;;;;;;;;;5034556;28;20046;-92
2023/04/07 11:11:07;;;;;;;28.50;27.42;;;;;;;;;;5034325;28;20052;-92
2023/04/07 11:13:40;;;;;;;27.52;26.50;;;;;;;;;;5035348;28;20129;-91
2023/04/07 11:16:07;;;;;;;18.05;17.25;;;;;;;;;;5035176;28;20491;-90
2023/04/07 11:18:34;;;;;;;35.20;33.85;;;;;;;;;;5035488;28;20050;-91
2023/04/07 11:21:01;;;;;;;26.65;25.65;;;;;;;;;;5035753;28;20046;-91
2023/04/07 11:23:28;;;;;;;28.38;27.15;;;;;;;;;;5039415;28;20068;-91
2023/04/07 11:26:01;;;;;;;15.10;14.50;;;;;;;;;;5039595;28;20452;-90
2023/04/07 11:28:27;;;;;;;27.35;26.23;;;;;;;;;;5039287;28;20117;-92
2023/04/07 11:30:55;;;;;;;19.92;19.13;;;;;;;;;;5032396;28;20386;-90
2023/04/07 11:33:22;;;;;;;14.98;14.05;;;;;;;;;;5036342;28;20041;-90
2023/04/07 11:35:54;;;;;;;29.38;28.25;;;;;;;;;;5024033;28;20046;-90
2023/04/07 11:38:21;;;;;;;26.55;25.50;;;;;;;;;;5017143;28;20057;-90
2023/04/07 11:40:47;;;;;;;26.38;25.33;;;;;;;;;;5028676;28;20128;-91
2023/04/07 11:43:19;;;;;;;14.43;13.82;;;;;;;;;;5038978;28;20456;-90
2023/04/07 11:45:46;;;;;;;11.77;11.27;;;;;;;;;;5037938;28;20045;-89
2023/04/07 11:48:29;;;;;;;16.42;15.80;;;;;;;;;;5022939;28;20436;-90
2023/04/07 11:50:56;;;;;;;11.82;11.23;;;;;;;;;;5032049;28;20053;-90
2023/04/07 11:53:26;;;;;;;10.25;9.75;;;;;;;;;;5027685;28;20058;-91
2023/04/07 11:55:59;;;;;;;10.88;10.38;;;;;;;;;;5040435;28;20111;-90
2023/04/07 11:58:27;;;;;;;11.43;10.93;;;;;;;;;;5020755;28;20129;-92
2023/04/07 12:00:54;;;;;;;10.27;9.88;;;;;;;;;;5021691;28;20564;-93
2023/04/07 12:03:21;;;;;;;12.35;11.85;;;;;;;;;;5033659;28;20050;-90
2023/04/07 12:05:47;;;;;;;10.48;10.05;;;;;;;;;;5040287;28;20053;-91
2023/04/07 12:08:15;;;;;;;9.82;9.38;;;;;;;;;;5038364;28;20053;-91
2023/04/07 12:10:42;;;;;;;25.05;24.05;;;;;;;;;;5039141;28;20057;-91
2023/04/07 12:13:09;;;;;;;26.73;25.67;;;;;;;;;;5042307;28;20064;-90
2023/04/07 12:15:37;;;;;;;29.95;28.85;;;;;;;;;;5042761;28;20041;-91
2023/04/07 12:18:04;;;;;;;14.98;14.38;;;;;;;;;;5039671;28;20050;-90
2023/04/07 12:20:31;;;;;;;38.17;36.65;;;;;;;;;;5041107;28;20076;-91
2023/04/07 12:22:58;;;;;;;29.40;28.10;;;;;;;;;;5032200;28;20053;-91
2023/04/07 12:25:26;;;;;;;13.55;13.05;;;;;;;;;;5019918;28;20065;-90
2023/04/07 12:27:52;;;;;;;15.50;14.80;;;;;;;;;;5019600;28;20065;-91
2023/04/07 12:30:20;;;;;;;17.05;16.35;;;;;;;;;;5035608;28;20136;-91
2023/04/07 12:32:48;;;;;;;35.08;33.67;;;;;;;;;;5033553;28;20046;-91
2023/04/07 12:35:14;;;;;;;38.58;37.10;;;;;;;;;;5028097;28;20053;-91
2023/04/07 12:37:41;;;;;;;23.35;22.42;;;;;;;;;;5017096;28;20054;-90
2023/04/07 12:40:08;;;;;;;35.50;34.20;;;;;;;;;;5033589;28;20053;-90
2023/04/07 12:42:34;;;;;;;24.73;23.80;;;;;;;;;;5035021;28;20073;-90
2023/04/07 12:45:02;;;;;;;28.13;27.02;;;;;;;;;;5018630;28;20049;-91
2023/04/07 12:47:28;;;;;;;14.13;13.55;;;;;;;;;;5019662;28;20073;-90
2023/04/07 12:49:56;;;;;;;13.60;13.00;;;;;;;;;;5029729;28;20539;-90
2023/04/07 12:52:23;;;;;;;25.02;24.05;;;;;;;;;;5039747;28;20049;-91
2023/04/07 12:54:49;;;;;;;13.93;13.10;;;;;;;;;;5033267;28;20045;-91
2023/04/07 12:57:16;;;;;;;28.33;27.27;;;;;;;;;;5036884;28;20057;-92
2023/04/07 12:59:43;;;;;;;24.08;23.17;;;;;;;;;;5037476;28;20053;-92
2023/04/07 13:02:12;;;;;;;28.80;27.75;;;;;;;;;;5046441;28;20132;-92
2023/04/07 13:04:39;;;;;;;30.17;29.08;;;;;;;;;;5031791;28;20497;-93
2023/04/07 13:07:08;;;;;;;29.13;27.92;;;;;;;;;;5036725;28;20045;-93
2023/04/07 13:09:35;;;;;;;33.20;31.85;;;;;;;;;;5018017;28;20090;-93
2023/04/07 13:12:01;;;;;;;30.02;28.88;;;;;;;;;;5025619;28;20054;-93
2023/04/07 13:14:28;;;;;;;36.78;35.45;;;;;;;;;;5031016;28;20080;-93
2023/04/07 13:16:54;;;;;;;31.75;30.48;;;;;;;;;;5038846;28;20046;-93
2023/04/07 13:19:21;;;;;;;28.17;27.15;;;;;;;;;;5040534;28;20053;-92
2023/04/07 13:21:48;;;;;;;29.52;28.42;;;;;;;;;;5032832;28;20493;-92
2023/04/07 13:24:15;;;;;;;34.40;33.05;;;;;;;;;;5021991;28;20049;-92
2023/04/07 13:26:42;;;;;;;15.63;14.77;;;;;;;;;;5034149;28;20060;-92
2023/04/07 13:29:08;;;;;;;16.08;15.35;;;;;;;;;;5024095;28;20444;-92
2023/04/07 13:31:35;;;;;;;23.40;22.40;;;;;;;;;;5027965;28;20410;-94
2023/04/07 13:34:01;;;;;;;33.65;32.33;;;;;;;;;;5018310;28;20490;-93
2023/04/07 13:36:28;;;;;;;42.30;40.63;;;;;;;;;;5027737;28;20041;-93
2023/04/07 13:38:56;;;;;;;34.83;33.53;;;;;;;;;;5028894;28;20053;-92
2023/04/07 13:41:25;;;;;;;30.40;29.25;;;;;;;;;;5019177;28;20077;-94
2023/04/07 13:43:51;;;;;;;34.85;33.53;;;;;;;;;;5019865;28;20061;-92
2023/04/07 13:46:18;;;;;;;34.53;33.13;;;;;;;;;;5024823;28;20045;-93
2023/04/07 13:48:45;;;;;;;20.52;19.73;;;;;;;;;;5030515;28;20399;-93
2023/04/07 13:51:12;;;;;;;33.20;31.95;;;;;;;;;;5035095;28;20049;-93
2023/04/07 13:53:40;;;;;;;33.75;32.40;;;;;;;;;;5039003;28;20519;-94
2023/04/07 13:56:07;;;;;;;30.00;28.80;;;;;;;;;;5028170;28;20474;-93
2023/04/07 13:58:35;;;;;;;26.83;25.80;;;;;;;;;;5017533;28;20104;-94
2023/04/07 14:01:02;;;;;;;26.58;25.48;;;;;;;;;;5035725;28;20164;-93
2023/04/07 14:03:28;;;;;;;35.45;33.72;;;;;;;;;;5024561;28;20045;-93
2023/04/07 14:05:59;;;;;;;32.47;31.25;;;;;;;;;;5017490;28;20552;-93
2023/04/07 14:08:26;;;;;;;34.22;32.95;;;;;;;;;;5016362;28;20133;-92
2023/04/07 14:10:52;;;;;;;12.18;11.60;;;;;;;;;;5033592;28;20045;-92
2023/04/07 14:13:19;;;;;;;27.77;26.73;;;;;;;;;;5033809;28;20069;-92
2023/04/07 14:15:47;;;;;;;26.80;25.38;;;;;;;;;;5035637;28;20139;-93
2023/04/07 14:18:14;;;;;;;13.63;13.02;;;;;;;;;;5028898;28;20135;-92
2023/04/07 14:20:40;;;;;;;31.10;29.83;;;;;;;;;;5033128;28;20096;-93
2023/04/07 14:23:07;;;;;;;29.38;28.33;;;;;;;;;;5035825;28;20046;-93
2023/04/07 14:25:34;;;;;;;12.88;12.38;;;;;;;;;;5021604;28;20057;-93
2023/04/07 14:28:00;;;;;;;28.38;27.35;;;;;;;;;;5040739;28;20057;-92
2023/04/07 14:30:27;;;;;;;26.45;25.25;;;;;;;;;;5024424;28;20041;-92
2023/04/07 14:32:55;;;;;;;12.85;12.35;;;;;;;;;;5021571;28;20049;-92
2023/04/07 14:35:21;;;;;;;26.48;25.48;;;;;;;;;;5038834;28;20053;-94